sensor_id;sensor_type;location;lat;lon;timestamp;P1;durP1;ratioP1;P2;durP2;ratioP2
16075;SDS011;8142;48.242;11.644;2023-05-15T00:00:04;4.37;;;3.97;;
16075;SDS011;8142;48.242;11.644;2023-05-15T00:02:31;5.57;;;3.93;;
16075;SDS011;8142;48.242;11.644;2023-05-15T00:05:00;3.53;;;3.23;;
16075;SDS011;8142;48.242;11.644;2023-05-15T00:07:26;4.53;;;3.70;;
16075;SDS011;8142;48.242;11.644;2023-05-15T00:09:52;4.03;;;3.70;;
16075;SDS011;8142;48.242;11.644;2023-05-15T00:12:18;4.13;;;3.73;;
16075;SDS011;8142;48.242;11.644;2023-05-15T00:14:43;4.10;;;3.70;;
16075;SDS011;8142;48.242;11.644;2023-05-15T00:17:09;4.60;;;3.50;;
16075;SDS011;8142;48.242;11.644;2023-05-15T00:19:36;4.23;;;3.83;;
16075;SDS011;8142;48.242;11.644;2023-05-15T00:22:02;4.60;;;3.67;;
16075;SDS011;8142;48.242;11.644;2023-05-15T00:24:28;4.90;;;4.07;;
16075;SDS011;8142;48.242;11.644;2023-05-15T00:26:54;4.90;;;3.83;;
16075;SDS011;8142;48.242;11.644;2023-05-15T00:29:20;5.20;;;4.70;;
16075;SDS011;8142;48.242;11.644;2023-05-15T00:31:46;5.00;;;4.10;;
16075;SDS011;8142;48.242;11.644;2023-05-15T00:34:12;3.97;;;3.57;;
16075;SDS011;8142;48.242;11.644;2023-05-15T00:36:38;4.30;;;3.90;;
16075;SDS011;8142;48.242;11.644;2023-05-15T00:39:04;6.50;;;4.90;;
16075;SDS011;8142;48.242;11.644;2023-05-15T00:41:30;4.87;;;4.40;;
16075;SDS011;8142;48.242;11.644;2023-05-15T00:43:57;5.17;;;4.60;;
16075;SDS011;8142;48.242;11.644;2023-05-15T00:46:26;4.70;;;3.93;;
16075;SDS011;8142;48.242;11.644;2023-05-15T00:48:52;5.17;;;4.67;;
16075;SDS011;8142;48.242;11.644;2023-05-15T00:51:20;5.60;;;3.93;;
16075;SDS011;8142;48.242;11.644;2023-05-15T00:53:46;4.93;;;4.43;;
16075;SDS011;8142;48.242;11.644;2023-05-15T00:56:11;5.70;;;4.13;;
16075;SDS011;8142;48.242;11.644;2023-05-15T00:58:38;6.43;;;4.40;;
16075;SDS011;8142;48.242;11.644;2023-05-15T01:01:05;4.53;;;4.13;;
16075;SDS011;8142;48.242;11.644;2023-05-15T01:03:30;3.87;;;3.57;;
16075;SDS011;8142;48.242;11.644;2023-05-15T01:05:56;4.97;;;3.63;;
16075;SDS011;8142;48.242;11.644;2023-05-15T01:10:57;5.03;;;4.53;;
16075;SDS011;8142;48.242;11.644;2023-05-15T01:13:24;4.93;;;4.43;;
16075;SDS011;8142;48.242;11.644;2023-05-15T01:15:50;5.00;;;4.50;;
16075;SDS011;8142;48.242;11.644;2023-05-15T01:18:16;5.67;;;4.47;;
16075;SDS011;8142;48.242;11.644;2023-05-15T01:20:56;5.43;;;4.63;;
16075;SDS011;8142;48.242;11.644;2023-05-15T01:29:07;5.13;;;4.63;;
16075;SDS011;8142;48.242;11.644;2023-05-15T01:31:39;5.53;;;4.53;;
16075;SDS011;8142;48.242;11.644;2023-05-15T01:34:08;4.70;;;4.20;;
16075;SDS011;8142;48.242;11.644;2023-05-15T01:36:42;4.30;;;3.90;;
16075;SDS011;8142;48.242;11.644;2023-05-15T01:39:14;7.50;;;5.50;;
16075;SDS011;8142;48.242;11.644;2023-05-15T01:41:45;8.13;;;5.17;;
16075;SDS011;8142;48.242;11.644;2023-05-15T01:44:21;6.07;;;5.30;;
16075;SDS011;8142;48.242;11.644;2023-05-15T01:46:56;7.07;;;5.67;;
16075;SDS011;8142;48.242;11.644;2023-05-15T01:49:27;6.03;;;5.23;;
16075;SDS011;8142;48.242;11.644;2023-05-15T01:51:58;7.10;;;5.50;;
16075;SDS011;8142;48.242;11.644;2023-05-15T01:54:33;6.10;;;5.50;;
16075;SDS011;8142;48.242;11.644;2023-05-15T01:57:00;6.17;;;5.40;;
16075;SDS011;8142;48.242;11.644;2023-05-15T01:59:27;6.30;;;5.47;;
16075;SDS011;8142;48.242;11.644;2023-05-15T02:01:54;6.70;;;6.00;;
16075;SDS011;8142;48.242;11.644;2023-05-15T02:04:21;5.30;;;4.50;;
16075;SDS011;8142;48.242;11.644;2023-05-15T02:06:49;6.33;;;5.37;;
16075;SDS011;8142;48.242;11.644;2023-05-15T02:09:17;9.13;;;6.50;;
16075;SDS011;8142;48.242;11.644;2023-05-15T02:11:45;8.93;;;6.83;;
16075;SDS011;8142;48.242;11.644;2023-05-15T02:14:12;8.67;;;6.50;;
16075;SDS011;8142;48.242;11.644;2023-05-15T02:16:39;7.60;;;6.50;;
16075;SDS011;8142;48.242;11.644;2023-05-15T02:19:05;8.60;;;6.53;;
16075;SDS011;8142;48.242;11.644;2023-05-15T02:21:31;8.70;;;7.23;;
16075;SDS011;8142;48.242;11.644;2023-05-15T02:23:57;8.53;;;7.13;;
16075;SDS011;8142;48.242;11.644;2023-05-15T02:32:00;9.43;;;7.17;;
16075;SDS011;8142;48.242;11.644;2023-05-15T02:34:36;5.93;;;5.00;;
16075;SDS011;8142;48.242;11.644;2023-05-15T02:37:15;8.17;;;6.30;;
16075;SDS011;8142;48.242;11.644;2023-05-15T02:39:47;10.67;;;8.03;;
16075;SDS011;8142;48.242;11.644;2023-05-15T02:42:17;8.97;;;6.93;;
16075;SDS011;8142;48.242;11.644;2023-05-15T02:44:44;8.47;;;7.27;;
16075;SDS011;8142;48.242;11.644;2023-05-15T02:47:12;10.40;;;8.00;;
16075;SDS011;8142;48.242;11.644;2023-05-15T02:49:39;9.27;;;7.33;;
16075;SDS011;8142;48.242;11.644;2023-05-15T02:52:05;11.23;;;7.17;;
16075;SDS011;8142;48.242;11.644;2023-05-15T02:54:31;9.97;;;7.93;;
16075;SDS011;8142;48.242;11.644;2023-05-15T02:56:57;10.83;;;7.97;;
16075;SDS011;8142;48.242;11.644;2023-05-15T02:59:23;10.20;;;7.93;;
16075;SDS011;8142;48.242;11.644;2023-05-15T03:01:49;10.03;;;7.83;;
16075;SDS011;8142;48.242;11.644;2023-05-15T03:04:15;9.37;;;7.43;;
16075;SDS011;8142;48.242;11.644;2023-05-15T03:06:41;10.50;;;7.80;;
16075;SDS011;8142;48.242;11.644;2023-05-15T03:09:07;9.43;;;7.30;;
16075;SDS011;8142;48.242;11.644;2023-05-15T03:11:32;13.50;;;8.57;;
16075;SDS011;8142;48.242;11.644;2023-05-15T03:13:58;10.77;;;7.83;;
16075;SDS011;8142;48.242;11.644;2023-05-15T03:16:25;9.43;;;7.40;;
16075;SDS011;8142;48.242;11.644;2023-05-15T03:18:51;9.93;;;7.77;;
16075;SDS011;8142;48.242;11.644;2023-05-15T03:21:17;12.30;;;8.13;;
16075;SDS011;8142;48.242;11.644;2023-05-15T03:23:43;11.07;;;8.43;;
16075;SDS011;8142;48.242;11.644;2023-05-15T03:26:09;12.30;;;9.33;;
16075;SDS011;8142;48.242;11.644;2023-05-15T03:28:36;11.00;;;8.63;;
16075;SDS011;8142;48.242;11.644;2023-05-15T03:31:02;12.40;;;9.27;;
16075;SDS011;8142;48.242;11.644;2023-05-15T03:33:32;12.10;;;9.20;;
16075;SDS011;8142;48.242;11.644;2023-05-15T03:35:58;11.20;;;8.40;;
16075;SDS011;8142;48.242;11.644;2023-05-15T03:38:24;11.63;;;8.63;;
16075;SDS011;8142;48.242;11.644;2023-05-15T03:40:50;11.37;;;8.77;;
16075;SDS011;8142;48.242;11.644;2023-05-15T03:43:16;14.07;;;9.10;;
16075;SDS011;8142;48.242;11.644;2023-05-15T03:45:42;14.87;;;9.93;;
16075;SDS011;8142;48.242;11.644;2023-05-15T03:48:08;14.23;;;10.27;;
16075;SDS011;8142;48.242;11.644;2023-05-15T03:50:34;15.90;;;11.20;;
16075;SDS011;8142;48.242;11.644;2023-05-15T03:53:00;14.90;;;9.97;;
16075;SDS011;8142;48.242;11.644;2023-05-15T03:55:26;15.40;;;11.13;;
16075;SDS011;8142;48.242;11.644;2023-05-15T03:57:51;18.97;;;12.13;;
16075;SDS011;8142;48.242;11.644;2023-05-15T04:00:17;18.77;;;12.20;;
16075;SDS011;8142;48.242;11.644;2023-05-15T04:02:43;18.07;;;12.50;;
16075;SDS011;8142;48.242;11.644;2023-05-15T04:05:09;17.70;;;11.50;;
16075;SDS011;8142;48.242;11.644;2023-05-15T04:07:35;16.60;;;11.37;;
16075;SDS011;8142;48.242;11.644;2023-05-15T04:10:02;21.57;;;14.50;;
16075;SDS011;8142;48.242;11.644;2023-05-15T04:12:30;22.47;;;14.30;;
16075;SDS011;8142;48.242;11.644;2023-05-15T04:17:46;18.63;;;13.20;;
16075;SDS011;8142;48.242;11.644;2023-05-15T04:20:15;19.80;;;14.10;;
16075;SDS011;8142;48.242;11.644;2023-05-15T04:22:42;21.47;;;13.93;;
16075;SDS011;8142;48.242;11.644;2023-05-15T04:25:08;19.17;;;13.60;;
16075;SDS011;8142;48.242;11.644;2023-05-15T04:27:36;19.93;;;13.67;;
16075;SDS011;8142;48.242;11.644;2023-05-15T04:30:02;20.67;;;13.37;;
16075;SDS011;8142;48.242;11.644;2023-05-15T04:32:29;20.03;;;13.67;;
16075;SDS011;8142;48.242;11.644;2023-05-15T04:35:04;16.10;;;9.97;;
16075;SDS011;8142;48.242;11.644;2023-05-15T04:37:34;13.50;;;9.77;;
16075;SDS011;8142;48.242;11.644;2023-05-15T04:40:00;21.30;;;14.30;;
16075;SDS011;8142;48.242;11.644;2023-05-15T04:42:27;19.73;;;13.90;;
16075;SDS011;8142;48.242;11.644;2023-05-15T04:44:53;18.50;;;13.00;;
16075;SDS011;8142;48.242;11.644;2023-05-15T04:47:19;18.90;;;13.17;;
16075;SDS011;8142;48.242;11.644;2023-05-15T04:49:45;17.57;;;12.90;;
16075;SDS011;8142;48.242;11.644;2023-05-15T04:52:12;19.47;;;13.63;;
16075;SDS011;8142;48.242;11.644;2023-05-15T04:54:38;18.83;;;12.83;;
16075;SDS011;8142;48.242;11.644;2023-05-15T04:57:04;17.90;;;13.30;;
16075;SDS011;8142;48.242;11.644;2023-05-15T04:59:30;19.70;;;12.87;;
16075;SDS011;8142;48.242;11.644;2023-05-15T05:01:56;17.90;;;12.70;;
16075;SDS011;8142;48.242;11.644;2023-05-15T05:04:22;17.73;;;12.30;;
16075;SDS011;8142;48.242;11.644;2023-05-15T05:06:48;20.23;;;13.03;;
16075;SDS011;8142;48.242;11.644;2023-05-15T05:09:14;19.77;;;13.03;;
16075;SDS011;8142;48.242;11.644;2023-05-15T05:11:40;19.33;;;13.37;;
16075;SDS011;8142;48.242;11.644;2023-05-15T05:14:09;18.33;;;12.90;;
16075;SDS011;8142;48.242;11.644;2023-05-15T05:16:36;16.80;;;12.37;;
16075;SDS011;8142;48.242;11.644;2023-05-15T05:19:02;19.97;;;13.37;;
16075;SDS011;8142;48.242;11.644;2023-05-15T05:21:28;18.07;;;13.00;;
16075;SDS011;8142;48.242;11.644;2023-05-15T05:23:55;18.87;;;13.37;;
16075;SDS011;8142;48.242;11.644;2023-05-15T05:26:21;17.97;;;13.20;;
16075;SDS011;8142;48.242;11.644;2023-05-15T05:28:47;17.77;;;13.17;;
16075;SDS011;8142;48.242;11.644;2023-05-15T05:31:13;18.17;;;12.90;;
16075;SDS011;8142;48.242;11.644;2023-05-15T05:33:39;17.63;;;13.07;;
16075;SDS011;8142;48.242;11.644;2023-05-15T05:36:05;18.63;;;12.83;;
16075;SDS011;8142;48.242;11.644;2023-05-15T05:38:31;18.40;;;12.70;;
16075;SDS011;8142;48.242;11.644;2023-05-15T05:40:58;16.63;;;12.10;;
16075;SDS011;8142;48.242;11.644;2023-05-15T05:43:25;18.00;;;12.70;;
16075;SDS011;8142;48.242;11.644;2023-05-15T05:45:51;19.57;;;12.77;;
16075;SDS011;8142;48.242;11.644;2023-05-15T05:48:17;18.67;;;12.87;;
16075;SDS011;8142;48.242;11.644;2023-05-15T05:50:43;19.60;;;12.97;;
16075;SDS011;8142;48.242;11.644;2023-05-15T05:53:09;16.53;;;11.97;;
16075;SDS011;8142;48.242;11.644;2023-05-15T05:55:35;18.27;;;12.80;;
16075;SDS011;8142;48.242;11.644;2023-05-15T05:58:01;19.47;;;12.43;;
16075;SDS011;8142;48.242;11.644;2023-05-15T06:00:27;18.50;;;12.23;;
16075;SDS011;8142;48.242;11.644;2023-05-15T06:02:57;18.90;;;12.50;;
16075;SDS011;8142;48.242;11.644;2023-05-15T06:05:24;18.50;;;12.50;;
16075;SDS011;8142;48.242;11.644;2023-05-15T06:07:51;19.70;;;12.80;;
16075;SDS011;8142;48.242;11.644;2023-05-15T06:10:17;18.17;;;12.37;;
16075;SDS011;8142;48.242;11.644;2023-05-15T06:12:44;17.50;;;12.40;;
16075;SDS011;8142;48.242;11.644;2023-05-15T06:15:11;15.27;;;11.50;;
16075;SDS011;8142;48.242;11.644;2023-05-15T06:17:37;16.53;;;11.90;;
16075;SDS011;8142;48.242;11.644;2023-05-15T06:20:04;16.53;;;11.63;;
16075;SDS011;8142;48.242;11.644;2023-05-15T06:22:33;13.60;;;10.50;;
16075;SDS011;8142;48.242;11.644;2023-05-15T06:25:03;15.27;;;11.00;;
16075;SDS011;8142;48.242;11.644;2023-05-15T06:27:30;15.80;;;10.80;;
16075;SDS011;8142;48.242;11.644;2023-05-15T06:29:56;14.63;;;11.00;;
16075;SDS011;8142;48.242;11.644;2023-05-15T06:32:22;14.13;;;10.27;;
16075;SDS011;8142;48.242;11.644;2023-05-15T06:34:48;13.13;;;10.13;;
16075;SDS011;8142;48.242;11.644;2023-05-15T06:37:14;15.03;;;10.27;;
16075;SDS011;8142;48.242;11.644;2023-05-15T06:39:40;14.80;;;10.53;;
16075;SDS011;8142;48.242;11.644;2023-05-15T06:42:06;12.60;;;9.77;;
16075;SDS011;8142;48.242;11.644;2023-05-15T06:44:32;13.57;;;10.03;;
16075;SDS011;8142;48.242;11.644;2023-05-15T06:46:58;13.23;;;10.00;;
16075;SDS011;8142;48.242;11.644;2023-05-15T06:49:24;12.67;;;9.73;;
16075;SDS011;8142;48.242;11.644;2023-05-15T06:51:50;12.00;;;9.67;;
16075;SDS011;8142;48.242;11.644;2023-05-15T06:54:17;13.37;;;9.67;;
16075;SDS011;8142;48.242;11.644;2023-05-15T06:56:43;11.83;;;8.90;;
16075;SDS011;8142;48.242;11.644;2023-05-15T06:59:09;12.40;;;9.27;;
16075;SDS011;8142;48.242;11.644;2023-05-15T07:01:35;10.13;;;7.90;;
16075;SDS011;8142;48.242;11.644;2023-05-15T07:04:01;11.53;;;8.27;;
16075;SDS011;8142;48.242;11.644;2023-05-15T07:06:27;10.17;;;8.10;;
16075;SDS011;8142;48.242;11.644;2023-05-15T07:08:56;10.07;;;8.20;;
16075;SDS011;8142;48.242;11.644;2023-05-15T07:11:23;11.07;;;8.73;;
16075;SDS011;8142;48.242;11.644;2023-05-15T07:13:49;10.43;;;8.40;;
16075;SDS011;8142;48.242;11.644;2023-05-15T07:16:16;10.23;;;7.77;;
16075;SDS011;8142;48.242;11.644;2023-05-15T07:18:42;9.60;;;7.87;;
16075;SDS011;8142;48.242;11.644;2023-05-15T07:21:08;11.10;;;8.50;;
16075;SDS011;8142;48.242;11.644;2023-05-15T07:23:33;10.53;;;7.67;;
16075;SDS011;8142;48.242;11.644;2023-05-15T07:25:59;10.37;;;7.90;;
16075;SDS011;8142;48.242;11.644;2023-05-15T07:28:25;10.50;;;7.80;;
16075;SDS011;8142;48.242;11.644;2023-05-15T07:30:51;9.50;;;7.83;;
16075;SDS011;8142;48.242;11.644;2023-05-15T07:33:17;10.27;;;7.70;;
16075;SDS011;8142;48.242;11.644;2023-05-15T07:35:43;9.63;;;7.90;;
16075;SDS011;8142;48.242;11.644;2023-05-15T07:38:09;9.20;;;7.40;;
16075;SDS011;8142;48.242;11.644;2023-05-15T07:40:35;9.07;;;7.40;;
16075;SDS011;8142;48.242;11.644;2023-05-15T07:43:01;9.23;;;7.50;;
16075;SDS011;8142;48.242;11.644;2023-05-15T07:45:27;9.30;;;7.20;;
16075;SDS011;8142;48.242;11.644;2023-05-15T07:47:53;7.77;;;6.13;;
16075;SDS011;8142;48.242;11.644;2023-05-15T07:50:19;9.30;;;6.80;;
16075;SDS011;8142;48.242;11.644;2023-05-15T07:52:45;9.00;;;6.40;;
16075;SDS011;8142;48.242;11.644;2023-05-15T07:55:11;8.10;;;6.20;;
16075;SDS011;8142;48.242;11.644;2023-05-15T07:57:37;9.50;;;6.40;;
16075;SDS011;8142;48.242;11.644;2023-05-15T08:00:04;7.53;;;6.00;;
16075;SDS011;8142;48.242;11.644;2023-05-15T08:02:35;7.83;;;5.97;;
16075;SDS011;8142;48.242;11.644;2023-05-15T08:05:01;6.87;;;5.83;;
16075;SDS011;8142;48.242;11.644;2023-05-15T08:07:29;7.63;;;5.87;;
16075;SDS011;8142;48.242;11.644;2023-05-15T08:09:55;7.33;;;5.43;;
16075;SDS011;8142;48.242;11.644;2023-05-15T08:12:21;6.53;;;5.80;;
16075;SDS011;8142;48.242;11.644;2023-05-15T08:14:51;6.37;;;5.17;;
16075;SDS011;8142;48.242;11.644;2023-05-15T08:17:19;5.80;;;5.20;;
16075;SDS011;8142;48.242;11.644;2023-05-15T08:19:45;6.50;;;5.13;;
16075;SDS011;8142;48.242;11.644;2023-05-15T08:22:11;6.47;;;5.17;;
16075;SDS011;8142;48.242;11.644;2023-05-15T08:24:40;7.83;;;4.97;;
16075;SDS011;8142;48.242;11.644;2023-05-15T08:27:07;4.93;;;4.43;;
16075;SDS011;8142;48.242;11.644;2023-05-15T08:29:34;6.37;;;4.60;;
16075;SDS011;8142;48.242;11.644;2023-05-15T08:32:00;8.90;;;5.07;;
16075;SDS011;8142;48.242;11.644;2023-05-15T08:34:27;5.00;;;4.50;;
16075;SDS011;8142;48.242;11.644;2023-05-15T08:36:53;6.37;;;4.83;;
16075;SDS011;8142;48.242;11.644;2023-05-15T08:39:20;6.27;;;4.70;;
16075;SDS011;8142;48.242;11.644;2023-05-15T08:44:19;5.07;;;4.57;;
16075;SDS011;8142;48.242;11.644;2023-05-15T08:46:46;5.23;;;4.60;;
16075;SDS011;8142;48.242;11.644;2023-05-15T08:49:16;5.53;;;4.93;;
16075;SDS011;8142;48.242;11.644;2023-05-15T08:51:57;5.70;;;4.83;;
16075;SDS011;8142;48.242;11.644;2023-05-15T08:54:23;7.43;;;4.87;;
16075;SDS011;8142;48.242;11.644;2023-05-15T08:56:49;5.57;;;4.97;;
16075;SDS011;8142;48.242;11.644;2023-05-15T08:59:16;5.63;;;4.57;;
16075;SDS011;8142;48.242;11.644;2023-05-15T09:01:42;5.47;;;4.67;;
16075;SDS011;8142;48.242;11.644;2023-05-15T09:04:08;6.53;;;5.00;;
16075;SDS011;8142;48.242;11.644;2023-05-15T09:06:34;6.17;;;4.97;;
16075;SDS011;8142;48.242;11.644;2023-05-15T09:09:00;5.00;;;4.50;;
16075;SDS011;8142;48.242;11.644;2023-05-15T09:11:29;4.97;;;4.13;;
16075;SDS011;8142;48.242;11.644;2023-05-15T09:13:57;5.07;;;4.20;;
16075;SDS011;8142;48.242;11.644;2023-05-15T09:16:24;4.67;;;4.10;;
16075;SDS011;8142;48.242;11.644;2023-05-15T09:18:50;4.93;;;4.40;;
16075;SDS011;8142;48.242;11.644;2023-05-15T09:21:24;5.13;;;4.23;;
16075;SDS011;8142;48.242;11.644;2023-05-15T09:23:54;5.03;;;4.43;;
16075;SDS011;8142;48.242;11.644;2023-05-15T09:26:40;5.43;;;4.40;;
16075;SDS011;8142;48.242;11.644;2023-05-15T09:29:07;4.33;;;3.70;;
16075;SDS011;8142;48.242;11.644;2023-05-15T09:31:33;3.87;;;3.50;;
16075;SDS011;8142;48.242;11.644;2023-05-15T09:34:00;4.20;;;3.80;;
16075;SDS011;8142;48.242;11.644;2023-05-15T09:36:29;4.40;;;3.90;;
16075;SDS011;8142;48.242;11.644;2023-05-15T09:38:57;4.57;;;3.70;;
16075;SDS011;8142;48.242;11.644;2023-05-15T09:41:24;4.17;;;3.67;;
16075;SDS011;8142;48.242;11.644;2023-05-15T09:43:51;4.83;;;3.83;;
16075;SDS011;8142;48.242;11.644;2023-05-15T09:46:20;4.40;;;3.97;;
16075;SDS011;8142;48.242;11.644;2023-05-15T09:48:54;4.07;;;3.60;;
16075;SDS011;8142;48.242;11.644;2023-05-15T09:51:20;4.20;;;3.77;;
16075;SDS011;8142;48.242;11.644;2023-05-15T09:53:50;5.37;;;4.33;;
16075;SDS011;8142;48.242;11.644;2023-05-15T09:56:17;4.37;;;3.97;;
16075;SDS011;8142;48.242;11.644;2023-05-15T09:58:53;4.30;;;3.90;;
16075;SDS011;8142;48.242;11.644;2023-05-15T10:01:20;4.43;;;3.90;;
16075;SDS011;8142;48.242;11.644;2023-05-15T10:04:00;4.43;;;4.00;;
16075;SDS011;8142;48.242;11.644;2023-05-15T10:06:37;5.13;;;3.97;;
16075;SDS011;8142;48.242;11.644;2023-05-15T10:09:05;5.30;;;4.57;;
16075;SDS011;8142;48.242;11.644;2023-05-15T10:11:35;5.50;;;4.33;;
16075;SDS011;8142;48.242;11.644;2023-05-15T10:14:06;7.87;;;4.63;;
16075;SDS011;8142;48.242;11.644;2023-05-15T10:16:34;4.83;;;4.33;;
16075;SDS011;8142;48.242;11.644;2023-05-15T10:19:08;6.07;;;4.90;;
16075;SDS011;8142;48.242;11.644;2023-05-15T10:21:35;4.37;;;3.97;;
16075;SDS011;8142;48.242;11.644;2023-05-15T10:24:03;4.00;;;3.60;;
16075;SDS011;8142;48.242;11.644;2023-05-15T10:26:40;4.40;;;3.87;;
16075;SDS011;8142;48.242;11.644;2023-05-15T10:29:08;4.50;;;4.10;;
16075;SDS011;8142;48.242;11.644;2023-05-15T10:31:38;4.50;;;4.10;;
16075;SDS011;8142;48.242;11.644;2023-05-15T10:34:05;4.93;;;3.90;;
16075;SDS011;8142;48.242;11.644;2023-05-15T10:36:32;4.50;;;4.10;;
16075;SDS011;8142;48.242;11.644;2023-05-15T10:39:03;4.60;;;4.17;;
16075;SDS011;8142;48.242;11.644;2023-05-15T10:41:31;6.57;;;4.30;;
16075;SDS011;8142;48.242;11.644;2023-05-15T10:44:00;4.97;;;4.33;;
16075;SDS011;8142;48.242;11.644;2023-05-15T10:46:27;6.17;;;4.80;;
16075;SDS011;8142;48.242;11.644;2023-05-15T10:48:55;5.13;;;4.43;;
16075;SDS011;8142;48.242;11.644;2023-05-15T10:51:25;5.30;;;4.80;;
16075;SDS011;8142;48.242;11.644;2023-05-15T10:53:52;6.17;;;5.00;;
16075;SDS011;8142;48.242;11.644;2023-05-15T10:56:18;4.43;;;4.03;;
16075;SDS011;8142;48.242;11.644;2023-05-15T10:58:46;5.13;;;4.57;;
16075;SDS011;8142;48.242;11.644;2023-05-15T11:06:34;7.60;;;4.90;;
16075;SDS011;8142;48.242;11.644;2023-05-15T11:14:25;5.63;;;4.80;;
16075;SDS011;8142;48.242;11.644;2023-05-15T11:21:56;5.43;;;4.53;;
16075;SDS011;8142;48.242;11.644;2023-05-15T11:25:06;4.97;;;3.90;;
16075;SDS011;8142;48.242;11.644;2023-05-15T11:27:23;3.93;;;3.57;;
16075;SDS011;8142;48.242;11.644;2023-05-15T11:32:53;3.87;;;2.80;;
16075;SDS011;8142;48.242;11.644;2023-05-15T11:40:57;4.77;;;3.43;;
16075;SDS011;8142;48.242;11.644;2023-05-15T11:43:36;4.97;;;3.60;;
16075;SDS011;8142;48.242;11.644;2023-05-15T11:48:33;4.97;;;4.40;;
16075;SDS011;8142;48.242;11.644;2023-05-15T11:51:01;4.80;;;3.90;;
16075;SDS011;8142;48.242;11.644;2023-05-15T11:53:29;4.10;;;3.70;;
16075;SDS011;8142;48.242;11.644;2023-05-15T11:55:55;2.83;;;2.50;;
16075;SDS011;8142;48.242;11.644;2023-05-15T11:58:21;3.50;;;2.20;;
16075;SDS011;8142;48.242;11.644;2023-05-15T12:00:49;2.80;;;2.40;;
16075;SDS011;8142;48.242;11.644;2023-05-15T12:03:23;3.30;;;2.37;;
16075;SDS011;8142;48.242;11.644;2023-05-15T12:05:50;3.43;;;3.00;;
16075;SDS011;8142;48.242;11.644;2023-05-15T12:08:20;6.83;;;3.47;;
16075;SDS011;8142;48.242;11.644;2023-05-15T12:10:46;3.77;;;3.10;;
16075;SDS011;8142;48.242;11.644;2023-05-15T12:13:12;4.43;;;3.30;;
16075;SDS011;8142;48.242;11.644;2023-05-15T12:15:43;3.20;;;3.00;;
16075;SDS011;8142;48.242;11.644;2023-05-15T12:18:10;3.40;;;3.10;;
16075;SDS011;8142;48.242;11.644;2023-05-15T12:20:37;4.63;;;3.40;;
16075;SDS011;8142;48.242;11.644;2023-05-15T12:23:05;4.53;;;3.33;;
16075;SDS011;8142;48.242;11.644;2023-05-15T12:25:33;3.27;;;2.80;;
16075;SDS011;8142;48.242;11.644;2023-05-15T12:28:01;3.10;;;2.80;;
16075;SDS011;8142;48.242;11.644;2023-05-15T12:30:29;2.87;;;2.43;;
16075;SDS011;8142;48.242;11.644;2023-05-15T12:33:01;4.53;;;2.53;;
16075;SDS011;8142;48.242;11.644;2023-05-15T12:35:29;4.53;;;2.23;;
16075;SDS011;8142;48.242;11.644;2023-05-15T12:37:59;2.93;;;2.20;;
16075;SDS011;8142;48.242;11.644;2023-05-15T12:40:29;2.03;;;1.90;;
16075;SDS011;8142;48.242;11.644;2023-05-15T12:42:58;2.17;;;1.97;;
16075;SDS011;8142;48.242;11.644;2023-05-15T12:45:28;2.53;;;2.20;;
16075;SDS011;8142;48.242;11.644;2023-05-15T12:47:57;3.20;;;2.60;;
16075;SDS011;8142;48.242;11.644;2023-05-15T12:50:24;2.67;;;2.47;;
16075;SDS011;8142;48.242;11.644;2023-05-15T12:52:52;2.83;;;2.63;;
16075;SDS011;8142;48.242;11.644;2023-05-15T12:57:50;4.50;;;3.03;;
16075;SDS011;8142;48.242;11.644;2023-05-15T13:00:23;4.37;;;2.60;;
16075;SDS011;8142;48.242;11.644;2023-05-15T13:02:53;2.57;;;2.37;;
16075;SDS011;8142;48.242;11.644;2023-05-15T13:05:27;3.40;;;3.10;;
16075;SDS011;8142;48.242;11.644;2023-05-15T13:07:57;3.77;;;3.30;;
16075;SDS011;8142;48.242;11.644;2023-05-15T13:10:24;4.20;;;3.37;;
16075;SDS011;8142;48.242;11.644;2023-05-15T13:12:51;3.93;;;3.40;;
16075;SDS011;8142;48.242;11.644;2023-05-15T13:15:22;3.60;;;3.30;;
16075;SDS011;8142;48.242;11.644;2023-05-15T13:17:57;4.00;;;3.60;;
16075;SDS011;8142;48.242;11.644;2023-05-15T13:20:24;4.13;;;3.27;;
16075;SDS011;8142;48.242;11.644;2023-05-15T13:22:51;4.57;;;3.47;;
16075;SDS011;8142;48.242;11.644;2023-05-15T13:25:17;3.47;;;3.17;;
16075;SDS011;8142;48.242;11.644;2023-05-15T13:27:44;4.07;;;3.17;;
16075;SDS011;8142;48.242;11.644;2023-05-15T13:30:11;4.17;;;2.97;;
16075;SDS011;8142;48.242;11.644;2023-05-15T13:32:38;3.30;;;2.87;;
16075;SDS011;8142;48.242;11.644;2023-05-15T13:35:04;3.70;;;2.80;;
16075;SDS011;8142;48.242;11.644;2023-05-15T13:37:31;2.80;;;2.60;;
16075;SDS011;8142;48.242;11.644;2023-05-15T13:39:56;3.30;;;3.00;;
16075;SDS011;8142;48.242;11.644;2023-05-15T13:42:22;3.23;;;2.73;;
16075;SDS011;8142;48.242;11.644;2023-05-15T13:44:48;3.27;;;2.97;;
16075;SDS011;8142;48.242;11.644;2023-05-15T13:47:14;3.53;;;2.73;;
16075;SDS011;8142;48.242;11.644;2023-05-15T13:49:40;3.33;;;2.40;;
16075;SDS011;8142;48.242;11.644;2023-05-15T13:52:06;2.87;;;2.60;;
16075;SDS011;8142;48.242;11.644;2023-05-15T13:54:32;4.23;;;3.00;;
16075;SDS011;8142;48.242;11.644;2023-05-15T13:56:58;3.47;;;2.93;;
16075;SDS011;8142;48.242;11.644;2023-05-15T13:59:24;3.20;;;2.90;;
16075;SDS011;8142;48.242;11.644;2023-05-15T14:01:50;5.17;;;3.00;;
16075;SDS011;8142;48.242;11.644;2023-05-15T14:04:16;3.73;;;3.13;;
16075;SDS011;8142;48.242;11.644;2023-05-15T14:06:43;3.00;;;2.70;;
16075;SDS011;8142;48.242;11.644;2023-05-15T14:09:09;3.30;;;3.00;;
16075;SDS011;8142;48.242;11.644;2023-05-15T14:11:35;4.97;;;3.13;;
16075;SDS011;8142;48.242;11.644;2023-05-15T14:14:00;4.37;;;3.30;;
16075;SDS011;8142;48.242;11.644;2023-05-15T14:16:26;4.93;;;3.63;;
16075;SDS011;8142;48.242;11.644;2023-05-15T14:18:52;4.00;;;3.60;;
16075;SDS011;8142;48.242;11.644;2023-05-15T14:21:18;4.20;;;3.50;;
16075;SDS011;8142;48.242;11.644;2023-05-15T14:23:44;4.17;;;3.20;;
16075;SDS011;8142;48.242;11.644;2023-05-15T14:26:09;4.30;;;3.13;;
16075;SDS011;8142;48.242;11.644;2023-05-15T14:28:35;4.23;;;2.47;;
16075;SDS011;8142;48.242;11.644;2023-05-15T14:31:01;2.40;;;2.20;;
16075;SDS011;8142;48.242;11.644;2023-05-15T14:33:27;2.30;;;2.10;;
16075;SDS011;8142;48.242;11.644;2023-05-15T14:35:53;3.10;;;2.50;;
16075;SDS011;8142;48.242;11.644;2023-05-15T14:38:19;5.77;;;2.40;;
16075;SDS011;8142;48.242;11.644;2023-05-15T14:40:44;3.43;;;2.50;;
16075;SDS011;8142;48.242;11.644;2023-05-15T14:43:10;2.70;;;2.50;;
16075;SDS011;8142;48.242;11.644;2023-05-15T14:45:36;3.80;;;2.67;;
16075;SDS011;8142;48.242;11.644;2023-05-15T14:48:02;4.23;;;2.70;;
16075;SDS011;8142;48.242;11.644;2023-05-15T14:50:28;3.80;;;3.40;;
16075;SDS011;8142;48.242;11.644;2023-05-15T14:52:54;5.13;;;3.13;;
16075;SDS011;8142;48.242;11.644;2023-05-15T14:55:20;3.17;;;2.83;;
16075;SDS011;8142;48.242;11.644;2023-05-15T14:57:46;3.10;;;2.80;;
16075;SDS011;8142;48.242;11.644;2023-05-15T15:00:15;3.33;;;2.70;;
16075;SDS011;8142;48.242;11.644;2023-05-15T15:02:42;3.27;;;2.60;;
16075;SDS011;8142;48.242;11.644;2023-05-15T15:05:08;3.83;;;2.67;;
16075;SDS011;8142;48.242;11.644;2023-05-15T15:10:29;5.73;;;2.87;;
16075;SDS011;8142;48.242;11.644;2023-05-15T15:12:56;3.63;;;3.00;;
16075;SDS011;8142;48.242;11.644;2023-05-15T15:15:22;3.43;;;3.13;;
16075;SDS011;8142;48.242;11.644;2023-05-15T15:17:48;3.20;;;2.90;;
16075;SDS011;8142;48.242;11.644;2023-05-15T15:20:17;3.37;;;3.00;;
16075;SDS011;8142;48.242;11.644;2023-05-15T15:22:44;3.00;;;2.70;;
16075;SDS011;8142;48.242;11.644;2023-05-15T15:25:10;3.30;;;3.00;;
16075;SDS011;8142;48.242;11.644;2023-05-15T15:27:37;3.97;;;2.93;;
16075;SDS011;8142;48.242;11.644;2023-05-15T15:30:04;3.10;;;2.80;;
16075;SDS011;8142;48.242;11.644;2023-05-15T15:32:31;3.47;;;3.00;;